Time;durP1;ratioP1;P1;durP2;ratioP2;P2;SDS_P1;SDS_P2;PMS_P1;PMS_P2;Temp;Humidity;BMP_temperature;BMP_pressure;BME280_temperature;BME280_humidity;BME280_pressure;Samples;Min_cycle;Max_cycle;Signal;HPM_P1;HPM_P2
2023/11/24 00:00:40;;;;;;;20.00;2.60;;;8.90;99.90;;;;;;5062411;28;20055;-81
2023/11/24 00:03:06;;;;;;;16.17;2.25;;;8.90;99.90;;;;;;5043925;28;20579;-81
2023/11/24 00:05:32;;;;;;;23.30;2.75;;;8.90;99.90;;;;;;5059507;28;20044;-81
2023/11/24 00:07:58;;;;;;;26.20;3.00;;;8.90;99.90;;;;;;5041772;28;20489;-82
2023/11/24 00:10:28;;;;;;;18.50;2.92;;;8.90;99.90;;;;;;5043247;28;20044;-83
2023/11/24 00:12:56;;;;;;;22.92;3.67;;;8.80;99.90;;;;;;5063249;28;20068;-82
2023/11/24 00:15:22;;;;;;;22.05;4.00;;;8.80;99.90;;;;;;5045967;28;20047;-82
2023/11/24 00:17:47;;;;;;;16.08;3.38;;;8.60;99.90;;;;;;5041345;28;20041;-83
2023/11/24 00:20:16;;;;;;;16.42;2.13;;;8.60;99.90;;;;;;5030277;28;20029;-83
2023/11/24 00:22:43;;;;;;;12.00;1.58;;;8.70;99.90;;;;;;5048587;28;20093;-83
2023/11/24 00:25:12;;;;;;;14.55;2.75;;;8.60;99.90;;;;;;5048632;28;20178;-83
2023/11/24 00:27:38;;;;;;;18.98;2.08;;;8.50;99.90;;;;;;5062571;28;20488;-82
2023/11/24 00:30:07;;;;;;;14.55;1.92;;;8.50;99.90;;;;;;5042986;28;20086;-84
2023/11/24 00:32:34;;;;;;;10.55;1.55;;;8.30;99.90;;;;;;5043251;28;20036;-82
2023/11/24 00:35:00;;;;;;;7.60;1.55;;;8.30;99.90;;;;;;5044688;28;20032;-82
2023/11/24 00:37:26;;;;;;;15.23;1.52;;;8.20;99.90;;;;;;5059147;28;20033;-83
2023/11/24 00:39:51;;;;;;;12.93;1.83;;;8.00;99.90;;;;;;5062625;28;20029;-84
2023/11/24 00:42:17;;;;;;;9.50;1.77;;;8.00;99.90;;;;;;5034208;28;20100;-81
2023/11/24 00:44:42;;;;;;;14.75;1.55;;;8.00;99.90;;;;;;5060188;28;20033;-84
2023/11/24 00:47:08;;;;;;;11.27;2.42;;;8.10;99.90;;;;;;5060526;28;20025;-83
2023/11/24 00:49:34;;;;;;;12.77;1.83;;;7.90;99.90;;;;;;5029423;28;20520;-83
2023/11/24 00:52:03;;;;;;;8.88;1.55;;;7.90;99.90;;;;;;5043214;28;20016;-82
2023/11/24 00:54:28;;;;;;;11.68;1.65;;;7.90;99.90;;;;;;5060227;28;20543;-82
2023/11/24 00:56:54;;;;;;;13.60;1.67;;;7.90;99.90;;;;;;5063363;28;20116;-80
2023/11/24 00:59:20;;;;;;;14.85;2.55;;;7.80;99.90;;;;;;5044758;28;20456;-83
2023/11/24 01:01:46;;;;;;;11.48;1.58;;;7.70;99.90;;;;;;5027321;28;20029;-83
2023/11/24 01:04:11;;;;;;;9.52;2.13;;;7.30;99.90;;;;;;5031637;28;20043;-83
2023/11/24 01:06:38;;;;;;;14.55;1.52;;;7.30;99.90;;;;;;5049997;28;20025;-82
2023/11/24 01:09:04;;;;;;;9.23;1.65;;;7.40;99.90;;;;;;5046170;28;20045;-83
2023/11/24 01:11:30;;;;;;;4.72;1.02;;;7.30;99.90;;;;;;5042901;28;20147;-82
2023/11/24 01:13:56;;;;;;;11.05;1.27;;;7.30;99.90;;;;;;5047866;28;20572;-84
2023/11/24 01:16:23;;;;;;;8.38;1.27;;;7.30;99.90;;;;;;5043916;28;20369;-84
2023/11/24 01:18:49;;;;;;;11.38;1.10;;;7.40;99.90;;;;;;5059129;28;20028;-83
2023/11/24 01:21:17;;;;;;;7.60;1.02;;;7.40;99.90;;;;;;5045506;28;20039;-83
2023/11/24 01:23:43;;;;;;;5.05;1.40;;;7.30;99.90;;;;;;5047866;28;20067;-84
2023/11/24 01:26:11;;;;;;;7.55;0.63;;;7.20;99.90;;;;;;5064323;28;20059;-83
2023/11/24 01:28:40;;;;;;;7.25;0.88;;;7.30;99.90;;;;;;5046954;28;20032;-83
2023/11/24 01:31:05;;;;;;;10.20;1.52;;;7.10;99.90;;;;;;5046607;28;20495;-83
2023/11/24 01:33:31;;;;;;;5.47;1.00;;;7.10;99.90;;;;;;5049999;28;20349;-84
2023/11/24 01:35:57;;;;;;;9.77;0.98;;;7.20;99.90;;;;;;5048430;28;20024;-81
2023/11/24 01:38:23;;;;;;;4.78;0.80;;;7.10;99.90;;;;;;5045685;28;20051;-82
2023/11/24 01:40:49;;;;;;;4.95;1.08;;;7.10;99.90;;;;;;5046430;28;20495;-83
2023/11/24 01:43:15;;;;;;;10.10;1.90;;;6.90;99.90;;;;;;5047614;28;20402;-84
2023/11/24 01:45:42;;;;;;;6.28;0.90;;;6.90;99.90;;;;;;5057027;28;20031;-83
2023/11/24 01:48:08;;;;;;;8.77;1.35;;;6.70;99.90;;;;;;5059304;28;20028;-83
2023/11/24 01:50:33;;;;;;;5.75;0.85;;;6.90;99.90;;;;;;5058020;28;20511;-83
2023/11/24 01:52:59;;;;;;;5.15;0.80;;;6.70;99.90;;;;;;5029682;28;20037;-83
2023/11/24 01:55:26;;;;;;;14.45;1.48;;;6.80;99.90;;;;;;5061500;28;20016;-84
2023/11/24 01:57:52;;;;;;;11.50;1.25;;;6.70;99.90;;;;;;5058788;28;20048;-82
2023/11/24 02:00:18;;;;;;;5.25;1.05;;;6.70;99.90;;;;;;5040801;28;20063;-83
2023/11/24 02:02:44;;;;;;;6.38;1.20;;;6.80;99.90;;;;;;5045182;28;20495;-83
2023/11/24 02:05:11;;;;;;;5.25;1.48;;;6.70;99.90;;;;;;5059078;28;20147;-83
2023/11/24 02:07:36;;;;;;;9.35;1.40;;;6.60;99.90;;;;;;5030202;28;20119;-83
2023/11/24 02:10:02;;;;;;;8.90;0.82;;;6.60;99.90;;;;;;5043780;28;20339;-82
2023/11/24 02:12:28;;;;;;;3.65;0.80;;;6.50;99.90;;;;;;5043435;28;20028;-82
2023/11/24 02:14:53;;;;;;;6.22;1.02;;;6.60;99.90;;;;;;5060396;28;20418;-83
2023/11/24 02:17:19;;;;;;;10.90;1.48;;;6.60;99.90;;;;;;5046566;28;20393;-83
2023/11/24 02:19:45;;;;;;;6.05;0.63;;;6.40;99.90;;;;;;5027389;28;20032;-84
2023/11/24 02:22:10;;;;;;;8.57;1.25;;;6.40;99.90;;;;;;5042577;28;20556;-85
2023/11/24 02:24:36;;;;;;;4.88;0.70;;;6.40;99.90;;;;;;5046366;28;20040;-83
2023/11/24 02:27:02;;;;;;;5.63;0.70;;;6.30;99.90;;;;;;5039869;28;20033;-84
2023/11/24 02:29:29;;;;;;;11.82;0.90;;;6.30;99.90;;;;;;5043099;28;20063;-84
2023/11/24 02:31:55;;;;;;;2.85;0.52;;;6.40;99.90;;;;;;5057668;28;20029;-82
2023/11/24 02:34:20;;;;;;;4.53;0.80;;;6.40;99.90;;;;;;5044971;28;20369;-83
2023/11/24 02:36:46;;;;;;;7.32;1.17;;;6.40;99.90;;;;;;5043343;28;20468;-84
2023/11/24 02:39:12;;;;;;;8.02;0.85;;;6.30;99.90;;;;;;5062300;28;20448;-83
2023/11/24 02:41:38;;;;;;;8.70;1.40;;;6.20;99.90;;;;;;5056313;28;20028;-83
2023/11/24 02:44:03;;;;;;;10.68;1.48;;;6.20;99.90;;;;;;5058798;28;20028;-84
2023/11/24 02:46:30;;;;;;;15.80;1.20;;;6.20;99.90;;;;;;5024623;28;20170;-78
2023/11/24 02:48:56;;;;;;;6.00;1.10;;;6.20;99.90;;;;;;5040579;28;20034;-78
2023/11/24 02:51:24;;;;;;;5.22;1.00;;;6.20;99.90;;;;;;5040629;28;20587;-79
2023/11/24 02:53:49;;;;;;;8.90;1.70;;;6.20;99.90;;;;;;5041292;28;20487;-79
2023/11/24 02:56:15;;;;;;;12.80;1.30;;;6.10;99.90;;;;;;5028644;28;20036;-79
2023/11/24 02:58:41;;;;;;;9.57;2.25;;;6.20;99.90;;;;;;5045805;28;20048;-78
2023/11/24 03:01:06;;;;;;;11.38;1.60;;;6.20;99.90;;;;;;5047419;28;20081;-79
2023/11/24 03:03:32;;;;;;;13.63;1.48;;;6.10;99.90;;;;;;5042883;28;20052;-79
2023/11/24 03:06:01;;;;;;;11.95;1.65;;;6.20;99.90;;;;;;5042474;28;20033;-78
2023/11/24 03:08:27;;;;;;;6.13;1.80;;;6.20;99.90;;;;;;5047180;28;20081;-78
2023/11/24 03:10:53;;;;;;;11.27;1.40;;;6.10;99.90;;;;;;5028429;28;20115;-79
2023/11/24 03:13:19;;;;;;;10.07;1.75;;;6.10;99.90;;;;;;5040297;28;20072;-79
2023/11/24 03:15:45;;;;;;;8.98;1.27;;;6.10;99.90;;;;;;5025583;28;20495;-79
2023/11/24 03:18:12;;;;;;;13.27;1.98;;;6.20;99.90;;;;;;5042899;28;20059;-78
2023/11/24 03:20:37;;;;;;;17.50;1.65;;;6.20;99.90;;;;;;5025798;28;20081;-79
2023/11/24 03:23:03;;;;;;;4.53;1.23;;;6.30;99.90;;;;;;5058552;28;20468;-77
2023/11/24 03:25:29;;;;;;;21.23;2.15;;;6.30;99.90;;;;;;5040480;28;20495;-77
2023/11/24 03:27:56;;;;;;;11.38;1.67;;;6.10;99.90;;;;;;5048320;28;20032;-78
2023/11/24 03:30:23;;;;;;;11.55;1.08;;;6.10;99.90;;;;;;5041078;28;20552;-77
2023/11/24 03:32:49;;;;;;;12.50;1.30;;;6.10;99.90;;;;;;5044558;28;20036;-79
2023/11/24 03:35:14;;;;;;;18.25;2.08;;;6.10;99.90;;;;;;5029763;28;20391;-79
2023/11/24 03:37:40;;;;;;;8.55;1.17;;;6.10;99.90;;;;;;5061592;28;20035;-77
2023/11/24 03:40:06;;;;;;;8.20;1.30;;;6.10;99.90;;;;;;5057174;28;20580;-78
2023/11/24 03:42:31;;;;;;;13.93;2.10;;;6.00;99.90;;;;;;5046463;28;20033;-77
2023/11/24 03:44:57;;;;;;;20.30;2.15;;;6.10;99.90;;;;;;5058384;28;20504;-79
2023/11/24 03:47:23;;;;;;;17.73;2.33;;;6.10;99.90;;;;;;5039204;28;20148;-78
2023/11/24 03:49:52;;;;;;;12.27;2.50;;;6.20;99.90;;;;;;5043187;28;20089;-78
2023/11/24 03:52:17;;;;;;;16.08;2.03;;;6.20;99.90;;;;;;5026197;28;20036;-78
2023/11/24 03:54:43;;;;;;;10.40;1.52;;;6.20;99.90;;;;;;5031245;28;20039;-79
2023/11/24 03:57:09;;;;;;;8.85;1.55;;;6.30;99.90;;;;;;5031027;28;20024;-78
2023/11/24 03:59:34;;;;;;;11.18;1.50;;;6.30;99.90;;;;;;5038727;28;20033;-78
2023/11/24 04:02:06;;;;;;;5.40;0.88;;;6.40;99.90;;;;;;5059245;28;20107;-78
2023/11/24 04:04:31;;;;;;;16.38;2.00;;;6.30;99.90;;;;;;5058332;28;20029;-78
2023/11/24 04:06:57;;;;;;;16.27;1.65;;;6.20;99.90;;;;;;5059476;28;20426;-79
2023/11/24 04:09:24;;;;;;;11.00;2.75;;;6.30;99.90;;;;;;5056776;28;20146;-80
2023/11/24 04:11:51;;;;;;;10.30;1.70;;;6.40;99.90;;;;;;5025688;28;20097;-78
2023/11/24 04:14:17;;;;;;;8.77;1.60;;;6.40;99.90;;;;;;5040436;28;20059;-78
2023/11/24 04:16:42;;;;;;;11.48;2.28;;;6.40;99.90;;;;;;5030697;28;20056;-77
2023/11/24 04:19:08;;;;;;;8.95;1.85;;;6.50;99.90;;;;;;5057011;28;20496;-78
2023/11/24 04:21:34;;;;;;;6.13;0.90;;;6.40;99.90;;;;;;5039542;28;20033;-77
2023/11/24 04:23:59;;;;;;;11.93;1.95;;;6.50;99.90;;;;;;5043425;28;20031;-80
2023/11/24 04:26:25;;;;;;;7.53;1.73;;;6.50;99.90;;;;;;5063223;28;20522;-78
2023/11/24 04:28:50;;;;;;;9.77;1.90;;;6.50;99.90;;;;;;5045063;28;20115;-77
2023/11/24 04:31:16;;;;;;;15.88;1.92;;;6.60;99.90;;;;;;5041490;28;20097;-79
2023/11/24 04:33:44;;;;;;;11.73;1.08;;;6.60;99.90;;;;;;5039560;28;20104;-79
2023/11/24 04:36:11;;;;;;;7.50;1.05;;;6.50;99.90;;;;;;5062392;28;20039;-78
2023/11/24 04:38:36;;;;;;;17.67;1.38;;;6.50;99.90;;;;;;5028685;28;20445;-78
2023/11/24 04:41:02;;;;;;;16.52;2.25;;;6.50;99.90;;;;;;5046545;28;20025;-77
2023/11/24 04:43:28;;;;;;;13.77;2.05;;;6.60;99.90;;;;;;5047765;28;20039;-79
2023/11/24 04:45:53;;;;;;;5.15;1.23;;;6.60;99.90;;;;;;5044929;28;20507;-78
2023/11/24 04:48:19;;;;;;;5.57;1.65;;;6.60;99.90;;;;;;5041744;28;20044;-78
2023/11/24 04:50:44;;;;;;;9.95;1.67;;;6.60;99.90;;;;;;5026375;28;20048;-77
2023/11/24 04:53:10;;;;;;;11.20;1.83;;;6.50;99.90;;;;;;5040551;28;20052;-78
2023/11/24 04:55:36;;;;;;;15.55;1.77;;;6.50;99.90;;;;;;5042519;28;20029;-77
2023/11/24 04:58:01;;;;;;;11.48;1.52;;;6.60;99.90;;;;;;5044991;28;20034;-77
2023/11/24 05:00:28;;;;;;;10.75;1.10;;;6.60;99.90;;;;;;5028212;28;20052;-78
2023/11/24 05:02:53;;;;;;;8.38;1.70;;;6.50;99.90;;;;;;5030510;28;20507;-77
2023/11/24 05:05:19;;;;;;;12.60;1.67;;;6.50;99.90;;;;;;5031125;28;21338;-78
2023/11/24 05:07:44;;;;;;;12.68;1.85;;;6.50;99.90;;;;;;5043877;28;20029;-78
2023/11/24 05:10:10;;;;;;;11.98;3.15;;;6.20;99.90;;;;;;5043953;28;20498;-77
2023/11/24 05:12:36;;;;;;;11.23;2.65;;;5.90;99.90;;;;;;5043151;28;20506;-77
2023/11/24 05:15:08;;;;;;;10.93;2.08;;;6.00;99.90;;;;;;5028129;28;20036;-77
2023/11/24 05:17:34;;;;;;;5.22;1.50;;;6.00;99.90;;;;;;5041958;28;20040;-77
2023/11/24 05:20:00;;;;;;;10.15;1.60;;;6.00;99.90;;;;;;5030805;28;20028;-83
2023/11/24 05:22:25;;;;;;;9.35;2.50;;;6.10;99.90;;;;;;5047187;28;20036;-84
2023/11/24 05:24:51;;;;;;;10.25;2.15;;;6.10;99.90;;;;;;5043457;28;20037;-83
2023/11/24 05:27:17;;;;;;;8.50;1.50;;;6.10;99.90;;;;;;5043918;28;20052;-82
2023/11/24 05:29:43;;;;;;;3.10;1.20;;;6.00;99.90;;;;;;5046538;28;20071;-84
2023/11/24 05:32:08;;;;;;;5.28;1.23;;;6.00;99.90;;;;;;5058049;28;20108;-83
2023/11/24 05:34:35;;;;;;;12.85;1.75;;;6.00;99.90;;;;;;5042792;28;20021;-83
2023/11/24 05:37:05;;;;;;;8.60;1.90;;;5.90;99.90;;;;;;5043547;28;20025;-81
2023/11/24 05:39:31;;;;;;;4.07;0.90;;;6.00;99.90;;;;;;5027874;28;20095;-82
2023/11/24 05:41:57;;;;;;;12.80;2.35;;;6.00;99.90;;;;;;5060780;28;20032;-80
2023/11/24 05:44:22;;;;;;;12.63;1.85;;;5.90;99.90;;;;;;5031902;28;20033;-83
2023/11/24 05:46:48;;;;;;;19.15;3.45;;;5.90;99.90;;;;;;5025432;28;20060;-83
2023/11/24 05:49:15;;;;;;;10.50;1.55;;;5.80;99.90;;;;;;5029356;28;20029;-83
2023/11/24 05:51:40;;;;;;;8.88;1.98;;;5.90;99.90;;;;;;5044104;28;20044;-83
2023/11/24 05:54:07;;;;;;;12.80;1.85;;;5.90;99.90;;;;;;5044723;28;20034;-83
2023/11/24 05:56:33;;;;;;;12.88;1.88;;;5.90;99.90;;;;;;5055584;28;20033;-83
2023/11/24 05:58:58;;;;;;;7.68;1.58;;;6.00;99.90;;;;;;5041860;28;20025;-82
2023/11/24 06:01:24;;;;;;;6.40;1.80;;;6.00;99.90;;;;;;5060939;28;20028;-84
2023/11/24 06:03:50;;;;;;;12.02;1.98;;;6.00;99.90;;;;;;5043509;28;20033;-84
2023/11/24 06:06:15;;;;;;;7.65;2.85;;;6.00;99.90;;;;;;5057209;28;20097;-84
2023/11/24 06:08:41;;;;;;;8.80;2.47;;;6.00;99.90;;;;;;5059964;28;20036;-83
2023/11/24 06:11:07;;;;;;;9.13;2.05;;;6.00;99.90;;;;;;5058943;28;20032;-82
2023/11/24 06:13:33;;;;;;;11.00;1.95;;;6.00;99.90;;;;;;5027460;28;20480;-82
2023/11/24 06:15:58;;;;;;;6.07;1.98;;;6.00;99.90;;;;;;5059784;28;20036;-81
2023/11/24 06:18:25;;;;;;;14.02;2.13;;;6.00;99.90;;;;;;5055350;28;20045;-82
2023/11/24 06:20:51;;;;;;;11.38;1.60;;;6.00;99.90;;;;;;5047791;28;20402;-82
2023/11/24 06:23:17;;;;;;;12.30;1.52;;;6.10;99.90;;;;;;5060005;28;20041;-82
2023/11/24 06:25:42;;;;;;;11.95;1.75;;;6.00;99.90;;;;;;5024544;28;20047;-82
2023/11/24 06:28:08;;;;;;;4.93;0.90;;;6.10;99.90;;;;;;5054190;28;20036;-83
2023/11/24 06:30:34;;;;;;;6.20;1.52;;;6.10;99.90;;;;;;5039411;28;20112;-82
2023/11/24 06:33:01;;;;;;;6.68;1.40;;;6.00;99.90;;;;;;5042735;28;20084;-83
2023/11/24 06:35:27;;;;;;;6.03;0.80;;;6.00;99.90;;;;;;5043093;28;21053;-84
2023/11/24 06:37:52;;;;;;;8.07;1.33;;;6.00;99.90;;;;;;5044459;28;20808;-81
2023/11/24 06:40:27;;;;;;;8.05;1.20;;;6.00;99.90;;;;;;5040386;28;20512;-83
2023/11/24 06:42:52;;;;;;;8.48;1.10;;;5.90;99.90;;;;;;5061237;28;20478;-82
2023/11/24 06:45:19;;;;;;;4.07;1.02;;;6.00;99.90;;;;;;5030559;28;20617;-83
2023/11/24 06:47:44;;;;;;;5.80;1.17;;;6.00;99.90;;;;;;5060870;28;20492;-81
2023/11/24 06:50:13;;;;;;;5.68;1.13;;;6.10;99.90;;;;;;5044571;28;20052;-83
2023/11/24 06:52:42;;;;;;;7.25;1.35;;;6.00;99.90;;;;;;5029631;28;20570;-82
2023/11/24 06:55:09;;;;;;;9.73;0.88;;;6.10;99.90;;;;;;5042507;28;20469;-85
2023/11/24 06:57:34;;;;;;;8.02;1.48;;;5.90;99.90;;;;;;5043811;28;20087;-84
2023/11/24 07:00:00;;;;;;;10.10;1.45;;;6.00;99.90;;;;;;5047407;28;20112;-83
2023/11/24 07:02:28;;;;;;;12.18;1.77;;;6.00;99.90;;;;;;5031819;28;20078;-85
2023/11/24 07:04:54;;;;;;;10.20;1.88;;;6.00;99.90;;;;;;5048115;28;20049;-84
2023/11/24 07:07:21;;;;;;;13.43;2.15;;;5.80;99.90;;;;;;5040234;28;20029;-85
2023/11/24 07:09:47;;;;;;;13.65;1.27;;;5.90;99.90;;;;;;5042367;28;20068;-83
2023/11/24 07:12:17;;;;;;;10.77;1.17;;;5.90;99.90;;;;;;5062419;28;20551;-85
2023/11/24 07:14:47;;;;;;;4.85;1.05;;;5.90;99.90;;;;;;5028386;28;20104;-86
2023/11/24 07:17:13;;;;;;;8.90;1.33;;;5.90;99.90;;;;;;5046354;28;20024;-84
2023/11/24 07:19:38;;;;;;;4.15;1.02;;;5.80;99.90;;;;;;5030548;28;20039;-83
2023/11/24 07:22:04;;;;;;;6.28;1.02;;;5.90;99.90;;;;;;5043581;28;20036;-84
2023/11/24 07:24:29;;;;;;;10.80;1.80;;;5.90;99.90;;;;;;5042625;28;20036;-83
2023/11/24 07:26:55;;;;;;;4.88;0.85;;;5.90;99.90;;;;;;5031348;28;20038;-85
2023/11/24 07:29:21;;;;;;;8.63;1.17;;;5.90;99.90;;;;;;5038261;28;20124;-85
2023/11/24 07:31:48;;;;;;;4.97;1.20;;;5.90;99.90;;;;;;5024651;28;20029;-82
2023/11/24 07:34:14;;;;;;;10.02;1.45;;;5.90;99.90;;;;;;5042641;28;20109;-84
2023/11/24 07:36:40;;;;;;;4.30;1.40;;;5.80;99.90;;;;;;5033198;28;20119;-85
2023/11/24 07:39:06;;;;;;;7.57;1.35;;;5.90;99.90;;;;;;5047932;28;20063;-85
2023/11/24 07:41:31;;;;;;;4.95;0.98;;;5.90;99.90;;;;;;5050189;28;20094;-85
2023/11/24 07:43:57;;;;;;;9.07;1.98;;;5.90;99.90;;;;;;5052118;28;20476;-85
2023/11/24 07:46:23;;;;;;;7.07;1.13;;;5.90;99.90;;;;;;5051311;28;20954;-84
2023/11/24 07:48:48;;;;;;;13.95;1.55;;;5.80;99.90;;;;;;5033051;28;20033;-85
2023/11/24 07:51:14;;;;;;;7.95;1.58;;;5.70;99.90;;;;;;5031527;28;20103;-83
2023/11/24 07:53:40;;;;;;;12.52;2.08;;;5.80;99.90;;;;;;5031617;28;20062;-84
2023/11/24 07:56:06;;;;;;;9.88;1.40;;;5.80;99.90;;;;;;5060810;28;20033;-84
2023/11/24 07:58:31;;;;;;;8.02;1.65;;;5.80;99.90;;;;;;5054202;28;20499;-85
2023/11/24 08:00:57;;;;;;;9.43;2.33;;;5.80;99.90;;;;;;5045148;28;20025;-83
2023/11/24 08:03:24;;;;;;;7.45;1.38;;;5.80;99.90;;;;;;5034159;28;20041;-83
2023/11/24 08:05:52;;;;;;;8.00;1.70;;;5.80;99.90;;;;;;5066164;28;20791;-82
2023/11/24 08:08:18;;;;;;;12.25;1.73;;;5.90;99.90;;;;;;5046143;28;20380;-85
2023/11/24 08:10:43;;;;;;;2.85;1.02;;;5.90;99.90;;;;;;5058385;28;20032;-82
2023/11/24 08:13:09;;;;;;;5.07;1.15;;;6.00;99.90;;;;;;5044970;28;20043;-82
2023/11/24 08:15:35;;;;;;;19.58;2.30;;;6.00;99.90;;;;;;5050257;28;20033;-82
2023/11/24 08:18:01;;;;;;;7.88;2.20;;;6.00;99.90;;;;;;5044788;28;20033;-80
2023/11/24 08:20:26;;;;;;;15.13;1.83;;;6.00;99.90;;;;;;5044291;28;20740;-82
2023/11/24 08:22:52;;;;;;;5.45;1.50;;;5.90;99.90;;;;;;5036622;28;20048;-82
2023/11/24 08:25:18;;;;;;;11.20;2.25;;;6.00;99.90;;;;;;5030108;28;20029;-85
2023/11/24 08:27:44;;;;;;;4.85;1.73;;;6.00;99.90;;;;;;5062793;28;20508;-83
2023/11/24 08:30:10;;;;;;;12.05;1.77;;;6.00;99.90;;;;;;5034887;28;20532;-84
2023/11/24 08:32:39;;;;;;;8.80;1.73;;;6.00;99.90;;;;;;5052245;28;20365;-82
2023/11/24 08:35:07;;;;;;;8.15;1.83;;;6.10;99.90;;;;;;5028075;28;20029;-81
2023/11/24 08:37:34;;;;;;;12.48;3.20;;;6.10;99.90;;;;;;5055216;28;20032;-82
2023/11/24 08:40:04;;;;;;;8.65;1.80;;;6.10;99.90;;;;;;5063151;28;20087;-84
2023/11/24 08:42:31;;;;;;;10.23;1.75;;;6.10;99.90;;;;;;5043598;28;20475;-83
2023/11/24 08:44:56;;;;;;;9.82;1.88;;;6.20;99.90;;;;;;5026981;28;20055;-83
2023/11/24 08:47:25;;;;;;;8.68;1.85;;;6.30;99.90;;;;;;5062185;28;20032;-83
2023/11/24 08:49:50;;;;;;;6.15;1.25;;;6.30;99.90;;;;;;5043559;28;20120;-84
2023/11/24 08:52:16;;;;;;;7.68;1.80;;;6.20;99.90;;;;;;5059117;28;20531;-84
2023/11/24 08:54:42;;;;;;;13.27;2.05;;;6.20;99.90;;;;;;5043324;28;20037;-82
2023/11/24 08:57:07;;;;;;;10.00;2.08;;;6.20;99.90;;;;;;5050542;28;20315;-82
2023/11/24 08:59:34;;;;;;;10.45;1.90;;;6.20;99.90;;;;;;5043726;28;20506;-82
2023/11/24 09:01:59;;;;;;;11.73;2.13;;;6.20;99.90;;;;;;5047824;28;20039;-82
2023/11/24 09:04:27;;;;;;;12.85;2.05;;;6.10;99.90;;;;;;5046559;28;20040;-81
2023/11/24 09:06:53;;;;;;;6.75;1.25;;;6.20;99.90;;;;;;5043274;28;20021;-83
2023/11/24 09:09:19;;;;;;;5.55;1.40;;;6.20;99.90;;;;;;5051027;28;20047;-82
2023/11/24 09:11:44;;;;;;;11.90;1.63;;;6.20;99.90;;;;;;5045739;28;20059;-82
2023/11/24 09:14:10;;;;;;;7.97;1.70;;;6.20;99.90;;;;;;5045499;28;20046;-82
2023/11/24 09:16:36;;;;;;;7.93;1.50;;;6.20;99.90;;;;;;5044036;28;20037;-83
2023/11/24 09:19:02;;;;;;;5.45;1.40;;;6.30;99.90;;;;;;5047866;28;20124;-80
2023/11/24 09:21:31;;;;;;;8.60;1.90;;;6.30;99.90;;;;;;5029386;28;20113;-82
2023/11/24 09:23:57;;;;;;;10.20;2.53;;;6.30;99.90;;;;;;5033966;28;20858;-83
2023/11/24 09:26:22;;;;;;;4.88;1.10;;;6.20;99.90;;;;;;5043056;28;20044;-81
2023/11/24 09:28:48;;;;;;;5.40;1.20;;;6.20;99.90;;;;;;5032384;28;20033;-83
2023/11/24 09:31:14;;;;;;;5.75;1.42;;;6.30;99.90;;;;;;5032966;28;20474;-83
2023/11/24 09:33:39;;;;;;;5.03;1.35;;;6.20;99.90;;;;;;5059731;28;20037;-83
2023/11/24 09:36:07;;;;;;;6.43;1.25;;;6.30;99.90;;;;;;5046531;28;20412;-83
2023/11/24 09:38:33;;;;;;;9.13;1.70;;;6.30;99.90;;;;;;5029882;28;20471;-81
2023/11/24 09:41:08;;;;;;;5.85;1.13;;;6.30;99.90;;;;;;5030825;28;20811;-83
2023/11/24 09:43:40;;;;;;;9.38;1.52;;;6.40;99.90;;;;;;5030306;28;20037;-83
2023/11/24 09:46:07;;;;;;;8.85;1.15;;;6.30;99.90;;;;;;5062709;28;20492;-84
2023/11/24 09:48:33;;;;;;;5.63;1.10;;;6.20;99.90;;;;;;5059265;28;20033;-83
2023/11/24 09:51:00;;;;;;;4.85;1.00;;;6.20;99.90;;;;;;5061094;28;20119;-84
2023/11/24 09:53:29;;;;;;;7.50;1.67;;;6.20;99.90;;;;;;5025574;28;20215;-83
2023/11/24 09:56:02;;;;;;;6.20;1.00;;;6.10;99.90;;;;;;5049189;28;20037;-83
2023/11/24 09:58:29;;;;;;;11.20;1.40;;;6.10;99.90;;;;;;5042812;28;20029;-80
2023/11/24 10:00:58;;;;;;;6.35;1.20;;;6.10;99.90;;;;;;5030797;28;20028;-83
2023/11/24 10:03:27;;;;;;;5.35;1.52;;;6.10;99.90;;;;;;5045680;28;20041;-83
2023/11/24 10:05:52;;;;;;;5.05;1.02;;;6.10;99.90;;;;;;5060653;28;20036;-83
2023/11/24 10:08:18;;;;;;;3.72;0.82;;;6.10;99.90;;;;;;5041871;28;20594;-84
2023/11/24 10:10:44;;;;;;;13.75;1.27;;;6.10;99.90;;;;;;5027944;28;20045;-82
2023/11/24 10:13:09;;;;;;;1.98;0.70;;;6.20;99.90;;;;;;5063758;28;20037;-82
2023/11/24 10:15:35;;;;;;;4.05;0.95;;;6.20;99.90;;;;;;5026947;28;20036;-83
2023/11/24 10:18:03;;;;;;;4.38;0.82;;;6.30;99.90;;;;;;5030941;28;20036;-80
2023/11/24 10:20:30;;;;;;;5.63;0.90;;;6.30;99.90;;;;;;5052351;28;20040;-75
2023/11/24 10:22:56;;;;;;;6.72;1.05;;;6.30;99.90;;;;;;5041281;28;20031;-79
2023/11/24 10:25:28;;;;;;;4.25;1.17;;;6.30;99.90;;;;;;5055852;28;20036;-77
2023/11/24 10:27:59;;;;;;;8.20;1.17;;;6.30;99.90;;;;;;5038454;28;20035;-77
2023/11/24 10:30:24;;;;;;;4.75;1.17;;;6.30;99.90;;;;;;5046163;28;20499;-77
2023/11/24 10:32:51;;;;;;;6.03;1.08;;;6.40;99.90;;;;;;5024196;28;20039;-77
2023/11/24 10:35:17;;;;;;;4.97;1.00;;;6.40;99.90;;;;;;5052978;28;20553;-78
2023/11/24 10:37:43;;;;;;;2.67;0.73;;;6.50;99.90;;;;;;5041445;28;20032;-77
2023/11/24 10:40:11;;;;;;;8.50;1.30;;;6.50;99.90;;;;;;5059307;28;20052;-78
2023/11/24 10:42:38;;;;;;;6.13;1.60;;;6.50;99.90;;;;;;5058345;28;20033;-77
2023/11/24 10:45:07;;;;;;;2.67;0.80;;;6.60;99.90;;;;;;5046194;28;20405;-77
2023/11/24 10:47:49;;;;;;;7.18;1.08;;;6.60;99.90;;;;;;5039998;28;20514;-77
2023/11/24 10:50:16;;;;;;;7.30;1.38;;;6.70;99.90;;;;;;5045174;28;20031;-75
2023/11/24 10:52:48;;;;;;;7.15;1.65;;;6.80;99.90;;;;;;5057808;28;20494;-77
2023/11/24 10:55:14;;;;;;;6.93;0.75;;;6.90;99.90;;;;;;5058139;28;20139;-77
2023/11/24 10:57:43;;;;;;;6.50;0.70;;;6.80;99.90;;;;;;5043067;28;20041;-77
2023/11/24 11:00:09;;;;;;;2.58;0.68;;;6.80;99.90;;;;;;5039763;28;20041;-80
2023/11/24 11:02:39;;;;;;;1.92;0.47;;;6.70;99.90;;;;;;5023278;28;20059;-78
2023/11/24 11:05:34;;;;;;;1.48;0.40;;;6.70;99.90;;;;;;5029457;28;20029;-77
2023/11/24 11:08:18;;;;;;;5.38;0.80;;;6.60;99.90;;;;;;5037794;28;20090;-78
2023/11/24 11:11:12;;;;;;;1.08;0.45;;;6.60;99.90;;;;;;5047482;28;21352;-76
2023/11/24 11:13:41;;;;;;;2.92;0.65;;;6.40;99.90;;;;;;5046930;28;20171;-77
2023/11/24 11:16:08;;;;;;;3.63;1.00;;;6.40;99.90;;;;;;5041436;28;20029;-77
2023/11/24 11:18:34;;;;;;;4.72;0.90;;;6.20;99.90;;;;;;5044335;28;20036;-77
2023/11/24 11:21:10;;;;;;;6.40;0.90;;;6.10;99.90;;;;;;5029321;28;20032;-77
2023/11/24 11:23:36;;;;;;;5.45;0.90;;;6.20;99.90;;;;;;5032582;28;20036;-77
2023/11/24 11:26:02;;;;;;;2.75;0.82;;;6.10;99.90;;;;;;5028184;28;20095;-77
2023/11/24 11:28:36;;;;;;;9.32;1.20;;;6.20;99.90;;;;;;5038347;28;20071;-77
2023/11/24 11:31:22;;;;;;;5.97;1.15;;;6.30;99.90;;;;;;4681070;28;10000446;-77
2023/11/24 11:33:48;;;;;;;3.88;0.90;;;6.40;99.90;;;;;;5024784;28;20036;-83
2023/11/24 11:36:14;;;;;;;8.23;1.33;;;6.50;99.90;;;;;;5054321;28;20234;-83
2023/11/24 11:38:43;;;;;;;5.20;1.23;;;6.60;99.90;;;;;;5039808;28;20510;-84
2023/11/24 11:41:13;;;;;;;2.88;1.50;;;6.60;99.90;;;;;;5054811;28;20086;-83
2023/11/24 11:43:54;;;;;;;4.63;0.82;;;6.50;99.90;;;;;;5044975;28;20048;-83
2023/11/24 11:46:22;;;;;;;7.78;0.88;;;6.60;99.90;;;;;;5045994;28;20048;-83
2023/11/24 11:48:48;;;;;;;7.50;1.20;;;6.50;99.90;;;;;;5041649;28;20044;-83
2023/11/24 11:51:16;;;;;;;4.50;1.05;;;6.60;99.90;;;;;;5060030;28;20035;-84
2023/11/24 11:53:42;;;;;;;4.40;0.70;;;6.50;99.90;;;;;;5027159;28;20047;-82
2023/11/24 11:56:10;;;;;;;7.13;0.73;;;6.40;99.90;;;;;;5061369;28;20024;-84
2023/11/24 11:58:41;;;;;;;4.47;1.00;;;6.50;99.90;;;;;;5040990;28;20037;-81
2023/11/24 12:01:07;;;;;;;8.52;1.25;;;6.50;99.90;;;;;;5048858;28;20032;-84
2023/11/24 12:03:33;;;;;;;8.23;0.80;;;6.50;99.90;;;;;;5041142;28;20040;-84
2023/11/24 12:06:04;;;;;;;6.45;1.38;;;6.50;99.90;;;;;;5028446;28;20112;-85
2023/11/24 12:08:30;;;;;;;9.88;0.80;;;6.50;99.90;;;;;;5044324;28;20403;-84
2023/11/24 12:10:55;;;;;;;8.80;0.90;;;6.60;99.90;;;;;;5047666;28;20033;-83
2023/11/24 12:13:22;;;;;;;3.17;0.75;;;6.70;99.90;;;;;;5044815;28;20024;-84
2023/11/24 12:15:48;;;;;;;5.72;0.73;;;6.70;99.90;;;;;;5056874;28;20064;-85
2023/11/24 12:18:17;;;;;;;8.77;1.50;;;6.70;99.90;;;;;;5028880;28;20092;-84
2023/11/24 12:20:44;;;;;;;5.50;0.85;;;6.70;99.90;;;;;;5035733;28;20381;-84
2023/11/24 12:23:10;;;;;;;6.93;1.02;;;6.60;99.90;;;;;;5028771;28;20127;-83
2023/11/24 12:25:35;;;;;;;6.25;1.10;;;6.50;99.90;;;;;;5027821;28;20036;-82
2023/11/24 12:28:11;;;;;;;4.57;1.30;;;6.60;99.90;;;;;;5048609;28;20044;-83
2023/11/24 12:30:42;;;;;;;7.68;1.25;;;6.60;99.90;;;;;;5064702;28;20032;-84
2023/11/24 12:33:09;;;;;;;2.97;0.90;;;6.60;99.90;;;;;;5031413;28;20035;-83
2023/11/24 12:35:36;;;;;;;3.72;1.10;;;6.60;99.90;;;;;;5057351;28;20457;-82
2023/11/24 12:38:04;;;;;;;8.77;0.75;;;6.50;99.90;;;;;;5050806;28;20439;-85
2023/11/24 12:40:32;;;;;;;2.03;0.50;;;6.40;99.90;;;;;;5029830;28;20086;-82
2023/11/24 12:43:01;;;;;;;6.38;0.90;;;6.30;99.90;;;;;;5043999;28;20476;-79
2023/11/24 12:45:27;;;;;;;4.38;0.40;;;6.10;99.90;;;;;;5043012;28;20090;-77
2023/11/24 12:48:01;;;;;;;3.45;0.93;;;5.90;99.90;;;;;;5026503;28;20094;-78
2023/11/24 12:50:29;;;;;;;4.07;0.60;;;5.70;99.90;;;;;;5043548;28;20036;-78